Airfield :
LOGIN :

Register | Disclaimer

   EN    FR    IT 

 










Legend :    VFR   Marginal VFR   IFR   Intensive IFR   Very Intensive IFR
Visi :
Ceiling :
>= 8 km
>= 3000ft
5 to 8 km
1000 to 3000 ft
1500m to 5 km
500 to 1000 ft
800 to 1500m
200 to 500 ft
< 800m
< 200 ft
Symbols :   Thunderstorms  Fog  Heavy snow  Heavy precipitations  Wind > 20 kt
SIGMETs :     Misc.  Thunderstorms  Icing  Turbulence  Mountain Waves  Volcanic Ashes







- Airport Elevation : 348 ft
- IATA code : LDV
- Download approach charts


LFRJ - Landivisiau

CURRENT METAR :
  • 180430Z AUTO 04005KT 9999 -RA NSC 13/11 Q1013

EXPIRED METARs :
  • 180400Z AUTO 06004KT 030V090 CAVOK 13/10 Q1013
  • 180330Z AUTO 04004KT 360V070 CAVOK 13/10 Q1014
  • 180300Z AUTO 06005KT CAVOK 13/10 Q1014
  • 180230Z AUTO 08006KT CAVOK 13/10 Q1014
  • 180200Z AUTO 08005KT CAVOK 13/10 Q1014

Expired Forecast.
No reported NOTAMs for that airfield.
2 SIGMETs reported for the Brest FIR (LFRR) :
 
SIGMET 1  cancelation
LFRR SIGMET 2 VALID 180425/180600 LFPW
LFRR BREST FIR/UIR CNL SIGMET 1 180400/180600=
SIGMET 1  CANCELED :
Embedded thunderstorms
LFRR SIGMET 1 VALID 180400/180600 LFPW
LFRR BREST FIR/UIR EMBD TS OBS AT 0400Z WI N4900 W00200 - N4830 W00230 - N4830 W00315 - N4915 W00245 - N4900 W00200 TOP FL360 MOV NE 15KT NC=



MET'MAP, your aeronautical weather chart ! - Copyright ORBIFLY December 2007 - Disclaimer

ORBIFLY MET'MAP TEAM :

Programming & Development : Alexandra Zaïnal
Concept & Development : Baudouin d'Aumeries
Co-Development & Prog : Marc-Olivier Méhu
Technical & hardware support : Manuel Goepfert

Contact : metmap@orbifly.com




SOURCES & CREDITS :

   NOAA